createdAt,value
2023-02-09T00:00:16.660Z,1.10
2023-02-09T00:02:43.584Z,1.10
2023-02-09T00:05:11.077Z,1.00
2023-02-09T00:07:37.841Z,1.10
2023-02-09T00:10:05.771Z,1.10
2023-02-09T00:12:52.394Z,1.00
2023-02-09T00:15:19.149Z,0.90
2023-02-09T00:17:45.791Z,1.00
2023-02-09T00:20:12.622Z,0.90
2023-02-09T00:22:39.347Z,0.80
2023-02-09T00:25:06.389Z,0.80
2023-02-09T00:27:35.652Z,0.90
2023-02-09T00:30:02.735Z,0.80
2023-02-09T00:32:31.771Z,0.90
2023-02-09T00:34:58.432Z,0.90
2023-02-09T00:37:25.194Z,0.80
2023-02-09T00:39:51.912Z,0.80
2023-02-09T00:42:18.674Z,0.70
2023-02-09T00:44:46.002Z,0.60
2023-02-09T00:47:12.726Z,0.50
2023-02-09T00:49:40.174Z,0.50
2023-02-09T00:52:09.554Z,0.50
2023-02-09T00:54:36.757Z,0.60
2023-02-09T00:57:05.451Z,0.70
2023-02-09T00:59:34.292Z,0.60
2023-02-09T01:02:01.573Z,0.60
2023-02-09T01:04:29.513Z,0.40
2023-02-09T01:06:56.248Z,0.40
2023-02-09T01:09:23.143Z,0.60
2023-02-09T01:11:49.924Z,0.60
2023-02-09T01:14:17.325Z,0.40
2023-02-09T01:16:44.074Z,0.50
2023-02-09T01:19:13.608Z,0.50
2023-02-09T01:21:40.375Z,0.40
2023-02-09T01:24:07.683Z,0.40
2023-02-09T01:26:34.446Z,0.40
2023-02-09T01:29:01.191Z,0.70
2023-02-09T01:31:31.161Z,0.60
2023-02-09T01:33:59.783Z,0.70
2023-02-09T01:36:29.322Z,1.20
2023-02-09T01:38:58.428Z,1.10
2023-02-09T01:41:28.735Z,0.80
2023-02-09T01:44:03.576Z,0.60
2023-02-09T01:46:35.960Z,0.90
2023-02-09T01:49:12.512Z,0.90
2023-02-09T01:51:46.999Z,1.60
2023-02-09T01:54:21.124Z,1.00
2023-02-09T01:56:51.841Z,2.00
2023-02-09T01:59:19.464Z,1.60
2023-02-09T02:01:46.510Z,1.30
2023-02-09T02:04:13.459Z,0.90
2023-02-09T02:06:40.639Z,1.00
2023-02-09T02:09:17.657Z,1.30
2023-02-09T02:11:47.763Z,1.10
2023-02-09T02:14:36.113Z,1.50
2023-02-09T02:17:20.660Z,0.90
2023-02-09T02:20:25.058Z,1.50
2023-02-09T02:23:00.568Z,1.10
2023-02-09T02:26:15.966Z,1.30
2023-02-09T02:28:50.956Z,1.70
2023-02-09T02:31:36.369Z,1.20
2023-02-09T02:34:12.648Z,1.50
2023-02-09T02:36:52.261Z,2.10
2023-02-09T02:39:36.953Z,1.40
2023-02-09T02:42:39.071Z,1.90
2023-02-09T02:45:25.716Z,1.50
2023-02-09T02:48:10.589Z,1.50
2023-02-09T02:50:44.452Z,1.00
2023-02-09T02:53:14.849Z,0.80
2023-02-09T02:55:44.296Z,0.80
2023-02-09T02:58:13.268Z,0.90
2023-02-09T03:00:45.287Z,0.60
2023-02-09T03:03:25.236Z,0.70
2023-02-09T03:05:52.410Z,0.50
2023-02-09T03:08:19.467Z,0.70
2023-02-09T03:10:46.589Z,0.50
2023-02-09T03:13:22.414Z,0.90
2023-02-09T03:16:08.042Z,0.40
2023-02-09T03:19:09.664Z,0.90
2023-02-09T03:21:48.126Z,1.30
2023-02-09T03:24:20.873Z,1.30
2023-02-09T03:26:58.467Z,0.60
2023-02-09T03:29:29.968Z,0.40
2023-02-09T03:31:57.313Z,0.70
2023-02-09T03:34:24.078Z,1.40
2023-02-09T03:36:53.901Z,1.10
2023-02-09T03:39:20.694Z,2.20
2023-02-09T03:41:47.386Z,2.50
2023-02-09T03:44:26.489Z,1.30
2023-02-09T03:46:55.381Z,1.40
2023-02-09T03:49:24.152Z,1.60
2023-02-09T03:51:50.956Z,1.00
2023-02-09T03:54:19.604Z,1.00
2023-02-09T03:56:46.430Z,1.60
2023-02-09T03:59:13.322Z,2.10
2023-02-09T04:01:39.995Z,1.70
2023-02-09T04:04:07.735Z,1.70
2023-02-09T04:06:35.413Z,0.90
2023-02-09T04:09:03.437Z,1.10
2023-02-09T04:11:30.326Z,1.10
2023-02-09T04:13:57.248Z,1.20
2023-02-09T04:16:24.550Z,1.30
2023-02-09T04:18:52.666Z,1.60
2023-02-09T04:21:19.532Z,1.40
2023-02-09T04:23:46.579Z,1.70
2023-02-09T04:26:13.442Z,1.60
2023-02-09T04:28:40.217Z,1.80
2023-02-09T04:31:07.595Z,2.60
2023-02-09T04:33:34.328Z,2.80
2023-02-09T04:36:01.105Z,2.10
2023-02-09T04:38:28.955Z,2.10
2023-02-09T04:40:58.573Z,1.60
2023-02-09T04:43:25.340Z,1.70
2023-02-09T04:45:52.328Z,2.50
2023-02-09T04:48:21.666Z,2.00
2023-02-09T04:50:49.148Z,1.90
2023-02-09T04:53:16.404Z,1.50
2023-02-09T04:55:44.630Z,2.90
2023-02-09T04:58:55.452Z,2.40
2023-02-09T05:01:24.437Z,1.90
2023-02-09T05:03:51.904Z,2.00
2023-02-09T05:06:19.059Z,1.50
2023-02-09T05:08:46.219Z,2.30
2023-02-09T05:11:13.249Z,2.70
2023-02-09T05:13:40.051Z,4.10
2023-02-09T05:16:08.522Z,2.80
2023-02-09T05:18:35.821Z,3.20
2023-02-09T05:21:02.874Z,3.70
2023-02-09T05:23:29.592Z,2.70
2023-02-09T05:25:56.583Z,3.40
2023-02-09T05:28:24.464Z,3.00
2023-02-09T05:30:53.754Z,2.10
2023-02-09T05:33:22.021Z,2.50
2023-02-09T05:35:50.193Z,2.20
2023-02-09T05:38:16.938Z,2.30
2023-02-09T05:40:45.264Z,2.80
2023-02-09T05:43:12.241Z,1.90
2023-02-09T05:45:39.094Z,1.70
2023-02-09T05:48:05.914Z,2.50
2023-02-09T05:50:32.851Z,2.90
2023-02-09T05:53:00.592Z,2.10
2023-02-09T05:55:27.618Z,2.00
2023-02-09T05:57:54.334Z,1.10
2023-02-09T06:00:21.580Z,1.10
2023-02-09T06:02:48.280Z,2.10
2023-02-09T06:05:15.042Z,1.70
2023-02-09T06:07:41.823Z,2.10
2023-02-09T06:10:08.886Z,1.80
2023-02-09T06:12:35.653Z,1.90
2023-02-09T06:15:03.708Z,1.60
2023-02-09T06:17:30.394Z,1.80
2023-02-09T06:19:57.082Z,1.50
2023-02-09T06:22:23.870Z,1.40
2023-02-09T06:24:50.577Z,2.10
2023-02-09T06:27:17.309Z,2.90
2023-02-09T06:29:44.135Z,3.20
2023-02-09T06:32:11.479Z,3.10
2023-02-09T06:34:38.306Z,3.90
2023-02-09T06:37:04.986Z,4.20
2023-02-09T06:39:32.776Z,3.90
2023-02-09T06:41:59.750Z,3.40
2023-02-09T06:44:26.503Z,3.80
2023-02-09T06:46:53.235Z,3.60
2023-02-09T06:49:22.277Z,3.60
2023-02-09T06:51:49.080Z,3.00
2023-02-09T06:54:15.991Z,3.00
2023-02-09T06:56:42.744Z,2.70
2023-02-09T06:59:09.586Z,2.40
2023-02-09T07:01:37.520Z,1.90
2023-02-09T07:04:04.315Z,1.30
2023-02-09T07:06:31.235Z,1.30
2023-02-09T07:08:58.014Z,0.80
2023-02-09T07:11:24.769Z,1.00
2023-02-09T07:13:51.518Z,0.90
2023-02-09T07:16:18.402Z,0.70
2023-02-09T07:18:45.133Z,0.80
2023-02-09T07:21:15.816Z,1.00
2023-02-09T07:23:42.643Z,0.80
2023-02-09T07:26:15.198Z,1.30
2023-02-09T07:28:42.638Z,0.90
2023-02-09T07:31:11.940Z,0.70
2023-02-09T07:33:39.353Z,0.40
2023-02-09T07:36:07.785Z,0.60
2023-02-09T07:38:34.938Z,0.30
2023-02-09T07:41:03.935Z,0.50
2023-02-09T07:43:31.218Z,3.00
2023-02-09T07:46:03.977Z,3.50
2023-02-09T07:48:31.802Z,4.00
2023-02-09T07:50:59.171Z,4.30
2023-02-09T07:53:26.809Z,4.60
2023-02-09T07:55:53.950Z,5.50
2023-02-09T07:58:21.242Z,5.60
2023-02-09T08:00:49.911Z,6.10
2023-02-09T08:03:20.166Z,6.40
2023-02-09T08:06:01.654Z,5.50
2023-02-09T08:08:28.540Z,5.40
2023-02-09T08:10:57.942Z,5.10
2023-02-09T08:13:29.055Z,5.90
2023-02-09T08:15:58.762Z,5.20
2023-02-09T08:18:40.258Z,5.20
2023-02-09T08:21:09.735Z,4.80
2023-02-09T08:23:39.482Z,5.40
2023-02-09T08:26:09.920Z,5.20
2023-02-09T08:28:44.113Z,4.60
2023-02-09T08:31:17.109Z,5.80
2023-02-09T08:33:45.895Z,6.50
2023-02-09T08:36:13.776Z,7.10
2023-02-09T08:38:40.586Z,6.00
2023-02-09T08:41:11.954Z,5.50
2023-02-09T08:43:39.095Z,5.30
2023-02-09T08:46:08.790Z,5.90
2023-02-09T08:48:38.424Z,6.40
2023-02-09T08:51:07.701Z,5.60
2023-02-09T08:53:34.624Z,5.30
2023-02-09T08:56:01.354Z,6.50
2023-02-09T08:58:28.420Z,7.40
2023-02-09T09:00:59.918Z,7.00
2023-02-09T09:03:31.419Z,6.30
2023-02-09T09:06:03.447Z,5.60
2023-02-09T09:08:31.277Z,6.10
2023-02-09T09:10:58.383Z,5.80
2023-02-09T09:13:26.060Z,5.40
2023-02-09T09:15:54.086Z,5.50
2023-02-09T09:18:25.240Z,6.30
2023-02-09T09:20:52.712Z,5.70
2023-02-09T09:23:21.117Z,6.00
2023-02-09T09:25:48.499Z,5.60
2023-02-09T09:28:15.916Z,6.00
2023-02-09T09:30:42.912Z,5.40
2023-02-09T09:33:09.792Z,5.30
2023-02-09T09:35:36.574Z,6.20
2023-02-09T09:38:03.404Z,7.20
2023-02-09T09:40:33.451Z,7.30
2023-02-09T09:43:06.062Z,6.50
2023-02-09T09:45:37.908Z,7.10
2023-02-09T09:48:07.025Z,7.30
2023-02-09T09:50:39.596Z,7.70
2023-02-09T09:53:18.359Z,7.10
2023-02-09T09:55:46.153Z,8.00
2023-02-09T09:58:18.788Z,9.60
2023-02-09T10:00:46.042Z,8.00
2023-02-09T10:03:17.793Z,8.00
2023-02-09T10:05:48.647Z,8.90
2023-02-09T10:08:37.204Z,8.00
2023-02-09T10:11:05.733Z,8.30
2023-02-09T10:13:47.871Z,7.50
2023-02-09T10:16:30.492Z,6.90
2023-02-09T10:19:00.290Z,7.00
2023-02-09T10:21:30.329Z,7.10
2023-02-09T10:24:00.045Z,7.80
2023-02-09T10:26:36.856Z,8.30
2023-02-09T10:29:13.483Z,8.00
2023-02-09T10:31:50.439Z,8.80
2023-02-09T10:34:23.631Z,8.70
2023-02-09T10:36:53.953Z,7.70
2023-02-09T10:39:22.533Z,8.30
2023-02-09T10:41:54.752Z,7.50
2023-02-09T10:44:28.067Z,8.00
2023-02-09T10:47:23.752Z,7.80
2023-02-09T10:49:54.537Z,7.90
2023-02-09T10:52:25.669Z,7.70
2023-02-09T10:54:53.965Z,8.80
2023-02-09T10:57:35.983Z,7.90
2023-02-09T11:00:42.449Z,7.10
2023-02-09T11:03:27.261Z,7.10
2023-02-09T11:06:18.178Z,8.10
2023-02-09T11:08:49.930Z,7.50
2023-02-09T11:11:32.844Z,7.10
2023-02-09T11:14:00.169Z,7.80
2023-02-09T11:16:44.317Z,7.40
2023-02-09T11:19:25.400Z,7.40
2023-02-09T11:22:11.096Z,6.90
2023-02-09T11:24:56.295Z,6.90
2023-02-09T11:27:29.224Z,7.30
2023-02-09T11:30:14.558Z,7.20
2023-02-09T11:33:12.008Z,8.90
2023-02-09T11:36:17.304Z,7.70
2023-02-09T11:38:56.057Z,7.30
2023-02-09T11:41:48.013Z,8.00
2023-02-09T11:44:34.427Z,8.20
2023-02-09T11:47:07.770Z,8.00
2023-02-09T11:49:54.286Z,7.20
2023-02-09T11:52:29.985Z,7.50
2023-02-09T11:55:03.444Z,7.70
2023-02-09T11:57:40.784Z,7.50
2023-02-09T12:00:17.916Z,8.20
2023-02-09T12:03:00.443Z,8.00
2023-02-09T12:05:27.873Z,8.10
2023-02-09T12:08:19.568Z,8.20
2023-02-09T12:10:52.075Z,7.70
2023-02-09T12:13:29.771Z,8.20
2023-02-09T12:16:00.628Z,8.00
2023-02-09T12:18:30.594Z,8.30
2023-02-09T12:21:02.288Z,8.40
2023-02-09T12:23:33.735Z,8.10
2023-02-09T12:26:36.444Z,8.80
2023-02-09T12:29:24.738Z,8.70
2023-02-09T12:32:03.722Z,10.20
2023-02-09T12:34:39.689Z,9.40
2023-02-09T12:37:12.862Z,9.60
2023-02-09T12:40:11.675Z,10.50
2023-02-09T12:43:05.221Z,10.00
2023-02-09T12:45:36.846Z,10.00
2023-02-09T12:48:09.825Z,10.20
2023-02-09T12:50:42.668Z,10.00
2023-02-09T12:53:24.651Z,10.70
2023-02-09T12:56:17.477Z,10.20
2023-02-09T12:58:44.094Z,10.80
2023-02-09T13:01:13.271Z,10.90
2023-02-09T13:04:04.452Z,10.50
2023-02-09T13:06:46.489Z,9.80
2023-02-09T13:09:25.429Z,9.70
2023-02-09T13:12:00.823Z,9.60
2023-02-09T13:14:29.463Z,10.10
2023-02-09T13:17:30.849Z,10.10
2023-02-09T13:20:22.205Z,10.00
2023-02-09T13:23:04.985Z,10.30
2023-02-09T13:25:36.240Z,9.50
2023-02-09T13:28:18.853Z,9.40
2023-02-09T13:30:47.093Z,10.00
2023-02-09T13:33:16.603Z,10.20
2023-02-09T13:36:25.610Z,11.00
2023-02-09T13:38:53.118Z,10.60
2023-02-09T13:41:34.524Z,9.90
2023-02-09T13:44:01.549Z,10.30
2023-02-09T13:46:35.211Z,10.40
2023-02-09T13:49:24.024Z,10.20
2023-02-09T13:52:10.998Z,10.50
2023-02-09T13:54:40.589Z,12.00
2023-02-09T13:57:30.722Z,12.30
2023-02-09T14:00:08.661Z,11.40
2023-02-09T14:02:37.713Z,11.20
2023-02-09T14:05:07.921Z,10.70
2023-02-09T14:07:36.802Z,10.50
2023-02-09T14:10:14.597Z,11.00
2023-02-09T14:13:02.192Z,10.70
2023-02-09T14:15:58.730Z,10.60
2023-02-09T14:18:49.856Z,10.70
2023-02-09T14:21:27.456Z,10.60
2023-02-09T14:23:58.090Z,10.50
2023-02-09T14:26:28.225Z,9.60
2023-02-09T14:29:06.838Z,9.10
2023-02-09T14:31:35.388Z,9.20
2023-02-09T14:34:03.381Z,9.60
2023-02-09T14:36:32.840Z,9.10
2023-02-09T14:39:20.750Z,9.20
2023-02-09T14:42:14.155Z,9.90
2023-02-09T14:44:58.351Z,9.70
2023-02-09T14:47:45.581Z,9.30
2023-02-09T14:50:17.427Z,9.30
2023-02-09T14:52:47.057Z,10.00
2023-02-09T14:55:20.142Z,10.20
2023-02-09T14:57:47.053Z,10.60
2023-02-09T15:00:24.858Z,10.60
2023-02-09T15:02:53.198Z,9.80
2023-02-09T15:05:21.683Z,9.80
2023-02-09T15:07:55.900Z,10.10
2023-02-09T15:10:30.326Z,10.00
2023-02-09T15:12:57.883Z,9.90
2023-02-09T15:15:25.640Z,10.30
2023-02-09T15:17:54.243Z,10.40
2023-02-09T15:20:25.203Z,10.30
2023-02-09T15:22:53.408Z,10.10
2023-02-09T15:25:20.911Z,10.00
2023-02-09T15:27:52.440Z,9.80
2023-02-09T15:30:27.823Z,9.70
2023-02-09T15:32:54.519Z,9.60
2023-02-09T15:35:23.801Z,10.00
2023-02-09T15:37:56.306Z,9.80
2023-02-09T15:40:50.080Z,9.80
2023-02-09T15:43:38.106Z,9.60
2023-02-09T15:46:24.831Z,9.50
2023-02-09T15:48:51.508Z,9.60
2023-02-09T15:51:18.393Z,9.70
2023-02-09T15:53:46.464Z,9.80
2023-02-09T15:56:15.156Z,9.50
2023-02-09T15:58:44.886Z,9.70
2023-02-09T16:01:15.411Z,9.60
2023-02-09T16:03:42.652Z,9.70
2023-02-09T16:06:22.052Z,9.40
2023-02-09T16:08:49.870Z,9.20
2023-02-09T16:11:29.357Z,9.40
2023-02-09T16:13:56.033Z,9.40
2023-02-09T16:16:24.770Z,9.80
2023-02-09T16:18:51.934Z,10.10
2023-02-09T16:21:30.489Z,9.50
2023-02-09T16:24:01.456Z,9.30
2023-02-09T16:26:29.291Z,9.60
2023-02-09T16:28:57.119Z,9.80
2023-02-09T16:31:24.320Z,9.30
2023-02-09T16:33:51.565Z,9.20
2023-02-09T16:36:21.248Z,8.90
2023-02-09T16:38:48.319Z,9.30
2023-02-09T16:41:36.536Z,7.60
2023-02-09T16:44:17.488Z,6.70
2023-02-09T16:46:45.894Z,6.20
2023-02-09T16:49:34.832Z,5.80
2023-02-09T16:52:18.351Z,6.60
2023-02-09T16:54:51.894Z,7.40
2023-02-09T16:57:20.415Z,8.10
2023-02-09T16:59:47.402Z,8.50
2023-02-09T17:02:39.960Z,8.30
2023-02-09T17:05:24.532Z,8.70
2023-02-09T17:07:55.526Z,8.90
2023-02-09T17:10:26.429Z,9.10
2023-02-09T17:12:53.859Z,9.40
2023-02-09T17:15:29.987Z,9.40
2023-02-09T17:18:07.319Z,9.60
2023-02-09T17:20:42.168Z,9.70
2023-02-09T17:23:22.936Z,9.60
2023-02-09T17:25:51.518Z,9.40
2023-02-09T17:28:19.190Z,9.80
2023-02-09T17:30:47.742Z,9.70
2023-02-09T17:33:34.545Z,10.20
2023-02-09T17:38:48.586Z,11.00
2023-02-09T17:41:19.085Z,10.80
2023-02-09T17:43:46.577Z,10.90
2023-02-09T17:46:18.992Z,10.70
2023-02-09T17:48:48.913Z,10.80
2023-02-09T17:51:28.079Z,10.80
2023-02-09T17:53:55.483Z,10.40
2023-02-09T17:56:22.340Z,10.60
2023-02-09T17:58:51.072Z,10.70
2023-02-09T18:01:27.653Z,10.80
2023-02-09T18:03:59.552Z,10.50
2023-02-09T18:06:36.751Z,10.50
2023-02-09T18:09:06.509Z,10.50
2023-02-09T18:11:44.508Z,10.50
2023-02-09T18:14:18.170Z,10.60
2023-02-09T18:16:46.982Z,10.60
2023-02-09T18:19:14.458Z,10.50
2023-02-09T18:21:56.398Z,10.50
2023-02-09T18:24:25.214Z,10.50
2023-02-09T18:26:52.104Z,10.50
2023-02-09T18:29:22.716Z,10.50
2023-02-09T18:31:50.499Z,10.60
2023-02-09T18:34:17.284Z,10.60
2023-02-09T18:36:44.115Z,10.50
2023-02-09T18:39:10.957Z,10.50
2023-02-09T18:41:37.710Z,10.60
2023-02-09T18:44:04.350Z,10.60
2023-02-09T18:46:31.080Z,10.50
2023-02-09T18:48:58.374Z,10.40
2023-02-09T18:51:25.378Z,10.20
2023-02-09T18:53:52.358Z,10.10
2023-02-09T18:56:20.747Z,10.10
2023-02-09T18:58:51.419Z,10.20
2023-02-09T19:01:20.830Z,10.20
2023-02-09T19:03:51.640Z,10.20
2023-02-09T19:06:20.416Z,10.10
2023-02-09T19:08:48.789Z,10.10
2023-02-09T19:11:16.926Z,10.10
2023-02-09T19:14:03.674Z,10.10
2023-02-09T19:16:30.661Z,10.10
2023-02-09T19:18:58.377Z,10.10
2023-02-09T19:21:25.368Z,10.10
2023-02-09T19:23:53.958Z,10.10
2023-02-09T19:26:20.879Z,10.00
2023-02-09T19:28:48.421Z,10.10
2023-02-09T19:31:17.267Z,10.10
2023-02-09T19:33:44.236Z,10.10
2023-02-09T19:36:11.142Z,10.00
2023-02-09T19:38:38.126Z,10.00
2023-02-09T19:41:12.558Z,10.00
2023-02-09T19:43:40.530Z,10.00
2023-02-09T19:46:09.904Z,10.00
2023-02-09T19:48:38.392Z,10.00
2023-02-09T19:51:05.255Z,10.00
2023-02-09T19:53:32.727Z,10.10
2023-02-09T19:55:59.394Z,10.10
2023-02-09T19:58:26.121Z,10.10
2023-02-09T20:00:55.182Z,10.00
2023-02-09T20:03:22.944Z,10.10
2023-02-09T20:05:50.351Z,9.90
2023-02-09T20:08:19.981Z,10.00
2023-02-09T20:10:47.175Z,9.90
2023-02-09T20:13:15.179Z,10.00
2023-02-09T20:15:43.587Z,9.90
2023-02-09T20:18:12.192Z,9.90
2023-02-09T20:20:41.785Z,9.90
2023-02-09T20:23:09.466Z,9.90
2023-02-09T20:25:36.398Z,9.90
2023-02-09T20:28:03.502Z,9.90
2023-02-09T20:30:31.697Z,9.90
2023-02-09T20:32:58.518Z,10.00
2023-02-09T20:35:25.526Z,9.90
2023-02-09T20:37:53.691Z,9.90
2023-02-09T20:40:20.482Z,9.90
2023-02-09T20:43:06.153Z,9.90
2023-02-09T20:45:51.798Z,9.90
2023-02-09T20:48:19.476Z,9.80
2023-02-09T20:50:46.606Z,9.80
2023-02-09T20:53:13.525Z,9.90
2023-02-09T20:55:40.384Z,9.90
2023-02-09T20:58:07.209Z,9.70
2023-02-09T21:00:34.112Z,9.80
2023-02-09T21:03:01.813Z,9.80
2023-02-09T21:05:28.640Z,9.70
2023-02-09T21:07:55.587Z,9.90
2023-02-09T21:10:22.434Z,9.90
2023-02-09T21:12:49.200Z,9.90
2023-02-09T21:15:16.379Z,9.80
2023-02-09T21:17:47.897Z,9.80
2023-02-09T21:20:17.701Z,9.90
2023-02-09T21:22:45.521Z,9.90
2023-02-09T21:25:13.728Z,8.60
2023-02-09T21:27:40.532Z,4.80
2023-02-09T21:30:07.598Z,3.80
2023-02-09T21:32:34.984Z,3.50
2023-02-09T21:35:01.792Z,3.20
2023-02-09T21:37:32.161Z,2.90
2023-02-09T21:40:02.904Z,2.90
2023-02-09T21:42:31.441Z,2.80
2023-02-09T21:44:59.595Z,2.80
2023-02-09T21:47:31.498Z,2.80
2023-02-09T21:49:58.877Z,2.70
2023-02-09T21:52:26.489Z,2.60
2023-02-09T21:54:53.952Z,2.60
2023-02-09T21:57:21.368Z,2.50
2023-02-09T21:59:49.110Z,2.30
2023-02-09T22:02:17.865Z,2.30
2023-02-09T22:04:46.648Z,2.30
2023-02-09T22:07:14.459Z,2.40
2023-02-09T22:09:42.640Z,2.40
2023-02-09T22:12:10.484Z,2.30
2023-02-09T22:14:37.329Z,2.10
2023-02-09T22:17:04.066Z,2.10
2023-02-09T22:19:31.066Z,2.10
2023-02-09T22:21:58.156Z,2.00
2023-02-09T22:24:25.462Z,2.10
2023-02-09T22:26:52.409Z,2.10
2023-02-09T22:29:19.742Z,2.10
2023-02-09T22:31:46.450Z,1.90
2023-02-09T22:34:13.425Z,1.90
2023-02-09T22:36:40.192Z,1.90
2023-02-09T22:39:07.884Z,1.90
2023-02-09T22:41:35.332Z,1.80
2023-02-09T22:44:07.478Z,1.80
2023-02-09T22:46:39.757Z,1.70
2023-02-09T22:49:12.285Z,1.70
2023-02-09T22:51:40.067Z,1.80
2023-02-09T22:54:07.110Z,1.70
2023-02-09T22:56:33.938Z,1.60
2023-02-09T22:59:01.342Z,1.50
2023-02-09T23:01:29.321Z,1.40
2023-02-09T23:03:56.590Z,1.50
2023-02-09T23:06:27.101Z,1.60
2023-02-09T23:08:55.738Z,1.50
2023-02-09T23:11:23.276Z,1.50
2023-02-09T23:13:55.084Z,1.50
2023-02-09T23:16:33.949Z,1.40
2023-02-09T23:19:04.003Z,1.40
2023-02-09T23:21:34.545Z,1.40
2023-02-09T23:24:02.500Z,1.40
2023-02-09T23:26:29.831Z,1.40
2023-02-09T23:28:58.817Z,1.30
2023-02-09T23:31:27.838Z,1.50
2023-02-09T23:33:55.016Z,1.40
2023-02-09T23:36:24.441Z,1.40
2023-02-09T23:38:55.995Z,1.40
2023-02-09T23:41:23.646Z,1.30
2023-02-09T23:43:51.347Z,1.30
2023-02-09T23:46:20.233Z,1.20
2023-02-09T23:48:47.789Z,1.20
2023-02-09T23:51:20.358Z,1.20
2023-02-09T23:53:47.866Z,1.10
2023-02-09T23:56:16.517Z,1.20
2023-02-09T23:58:45.691Z,1.10
